Record high temperature 42.2°C Record low temperature -14.6°C Record high gust 76.2 km/h Record high average 96.8 km/h Record daily rain 63.7 mm Record low windchill -17.5°C Record high barometer 1046.0 hPa Record low barometer 969.0 hPa
Daily high pressure 994.0 hPa Daily low pressure 989.0 hPa Daily low windchill 11.8°C Daily high heat index 15.1°C Daily high gust speed 42.4 kmh SSE Daily high average speed 28.1 kmh SSE

This page is updated from recent data collected by a WMR200 weather station Use the Reload or Refresh facility on your browser to retrieve the latest data.

Status report of weather station: Bienvenue sur la Station Météo de Godarville



Weather report/warning/Metars

Alexandroupoli Airport , Greece (LGAL) 40-51N 025-55E 3M
Oct 25, 2020 - 02:50 AM EDT / 2020.10.25 0650 UTC
Wind: Calm:0
Visibility: 3 mile(s):0
Sky conditions: mostly clear
Weather: mist
Temperature: 60 F (16 C)
Dew Point: 59 F (15 C)
Relative Humidity: 93%
Pressure (altimeter): 29.91 in. Hg (1013 hPa)
ob: LGAL 250650Z 00000KT 5000 BR FEW010 16/15 Q1013
cycle: 7

Charleroi / Gosselies, Belgium (EBCI) 50-28N 004-27E 192M
Oct 25, 2020 - 02:50 AM EDT / 2020.10.25 0650 UTC
Wind: from the SSW (200 degrees) at 14 MPH (12 KT):0
Visibility: greater than 7 mile(s):0
Sky conditions: mostly cloudy
Weather: rain
Temperature: 51 F (11 C)
Dew Point: 50 F (10 C)
Relative Humidity: 93%
Pressure (altimeter): 29.62 in. Hg (1003 hPa)
ob: EBCI 250650Z 20012KT 9999 RA BKN009 BKN011 11/10 Q1003 NOSIG
cycle: 7

Bruxelles National, Belgium (EBBR) 50-54N 004-32E 58M
Oct 25, 2020 - 02:50 AM EDT / 2020.10.25 0650 UTC
Wind: from the SSW (200 degrees) at 12 MPH (10 KT):0
Visibility: greater than 7 mile(s):0
Sky conditions: partly cloudy
Weather: rain
Temperature: 53 F (12 C)
Dew Point: 50 F (10 C)
Relative Humidity: 87%
Pressure (altimeter): 29.59 in. Hg (1002 hPa)
ob: EBBR 250650Z 20010KT 9999 RA SCT025 12/10 Q1002 BECMG FM0715 NSW
cycle: 7

Koksijde, Belgium (EBFN) 51-05N 002-39E 9M
Oct 25, 2020 - 02:55 AM EDT / 2020.10.25 0655 UTC
Wind: from the S (180 degrees) at 10 MPH (9 KT):0
Visibility: greater than 7 mile(s):0
Sky conditions: overcast
Temperature: 51 F (11 C)
Dew Point: 50 F (10 C)
Relative Humidity: 93%
Pressure (altimeter): 29.53 in. Hg (1000 hPa)
ob: EBFN 250655Z AUTO 18009KT 9999 OVC016/// 11/10 Q1000 WHT
cycle: 7

Poznan, Poland (EPPO) 52-25N 016-50E 92M
Oct 25, 2020 - 03:00 AM EDT / 2020.10.25 0700 UTC
Wind: from the SSE (150 degrees) at 6 MPH (5 KT):0
Visibility: greater than 7 mile(s):0
Temperature: 48 F (9 C)
Dew Point: 46 F (8 C)
Relative Humidity: 93%
Pressure (altimeter): 29.91 in. Hg (1013 hPa)
ob: EPPO 250700Z 15005KT CAVOK 09/08 Q1013 
cycle: 7



Coucher du Soleil:
18:32:22

Lever de Lune:
16:30:08 24/10/20

Coucher de Lune:
01:12:19 25/10/20

Premier Quartier 23 octobre 2020
Pleine Lune 31 octobre 2020
Dernier Quartier 8 novembre 2020
Nouvelle Lune 15 novembre 2020
Âge de lune : 8 jours,16 heures,45 minutes,64%
Les heures du jour possible étaient aujourd’hui 10:12



The data is logged at two minute intervals, but there is data recorded every minute.

Use the RELOAD facility on your browser to retrieve the latest data.

Click here for a daily update of the averages/extremes to date for the month
Created by "Weather Display" software version 10.37P at this start time/date 23:56:45 07/10/2020